Time;durP1;ratioP1;P1;durP2;ratioP2;P2;SDS_P1;SDS_P2;PMS_P1;PMS_P2;Temp;Humidity;BMP_temperature;BMP_pressure;BME280_temperature;BME280_humidity;BME280_pressure;Samples;Min_cycle;Max_cycle;Signal;HPM_P1;HPM_P2
2023/12/10 00:00:46;;;;;;;;;;;8.30;99.90;;;;;;5135548;27;19965;-32
2023/12/10 00:03:13;;;;;;;;;;;8.30;99.90;;;;;;5119649;27;19956;-31
2023/12/10 00:05:40;;;;;;;;;;;8.30;99.90;;;;;;5099011;27;19951;-31
2023/12/10 00:08:08;;;;;;;;;;;8.20;99.90;;;;;;5116097;27;19938;-32
2023/12/10 00:10:35;;;;;;;;;;;8.20;99.90;;;;;;5134391;27;19946;-31
2023/12/10 00:13:01;;;;;;;;;;;8.20;99.90;;;;;;5135910;27;19959;-31
2023/12/10 00:15:28;;;;;;;;;;;8.20;99.90;;;;;;5116335;27;19941;-31
2023/12/10 00:17:55;;;;;;;;;;;8.20;99.90;;;;;;5132665;27;19945;-32
2023/12/10 00:20:22;;;;;;;;;;;8.20;99.90;;;;;;5116565;27;19959;-32
2023/12/10 00:22:49;;;;;;;;;;;8.20;99.90;;;;;;5115889;27;19942;-32
2023/12/10 00:25:17;;;;;;;;;;;8.20;99.90;;;;;;5130292;27;19950;-32
2023/12/10 00:27:44;;;;;;;;;;;8.20;99.90;;;;;;5117315;27;19944;-31
2023/12/10 00:30:11;;;;;;;;;;;8.10;99.90;;;;;;5115418;27;19949;-31
2023/12/10 00:32:38;;;;;;;;;;;8.10;99.90;;;;;;5108368;28;19934;-32
2023/12/10 00:35:05;;;;;;;;;;;8.20;99.90;;;;;;5124108;27;19939;-31
2023/12/10 00:37:32;;;;;;;;;;;8.20;99.90;;;;;;5134093;27;19941;-32
2023/12/10 00:39:59;;;;;;;;;;;8.20;99.90;;;;;;5135938;27;19942;-31
2023/12/10 00:42:27;;;;;;;;;;;8.20;99.90;;;;;;5112962;27;20405;-31
2023/12/10 00:44:54;;;;;;;;;;;8.30;99.90;;;;;;5116811;27;19955;-31
2023/12/10 00:47:20;;;;;;;;;;;8.20;99.90;;;;;;5116943;27;19963;-31
2023/12/10 00:49:47;;;;;;;;;;;8.30;99.90;;;;;;5135391;27;20456;-32
2023/12/10 00:52:14;;;;;;;;;;;8.30;99.90;;;;;;5134678;27;19952;-31
2023/12/10 00:54:41;;;;;;;;;;;8.30;99.90;;;;;;5116203;27;19927;-31
2023/12/10 00:57:07;;;;;;;;;;;8.30;99.90;;;;;;5134763;27;19938;-31
2023/12/10 00:59:35;;;;;;;;;;;8.30;99.90;;;;;;5134105;27;19965;-32
2023/12/10 01:02:02;;;;;;;;;;;8.30;99.90;;;;;;5134792;27;19941;-31
2023/12/10 01:04:29;;;;;;;;;;;8.30;99.90;;;;;;5134708;27;19954;-31
2023/12/10 01:06:55;;;;;;;;;;;8.20;99.90;;;;;;5135147;27;19941;-30
2023/12/10 01:09:22;;;;;;;;;;;8.20;99.90;;;;;;5116124;27;19930;-31
2023/12/10 01:11:49;;;;;;;;;;;8.20;99.90;;;;;;5116091;27;19966;-31
2023/12/10 01:14:16;;;;;;;;;;;8.10;99.90;;;;;;5134904;27;19930;-30
2023/12/10 01:16:45;;;;;;;;;;;8.00;99.90;;;;;;5134119;27;20379;-31
2023/12/10 01:19:12;;;;;;;;;;;8.00;99.90;;;;;;5133904;27;20317;-31
2023/12/10 01:21:38;;;;;;;;;;;8.00;99.90;;;;;;5115656;27;19936;-30
2023/12/10 01:24:07;;;;;;;;;;;8.00;99.90;;;;;;5116065;27;19965;-31
2023/12/10 01:26:34;;;;;;;;;;;8.00;99.90;;;;;;5129915;27;19937;-31
2023/12/10 01:29:01;;;;;;;;;;;7.90;99.90;;;;;;5108316;27;19942;-31
2023/12/10 01:31:28;;;;;;;;;;;7.90;99.90;;;;;;5132267;27;20060;-31
2023/12/10 01:33:57;;;;;;;;;;;7.90;99.90;;;;;;5106940;27;19979;-31
2023/12/10 01:36:23;;;;;;;;;;;7.90;99.90;;;;;;5133969;27;20014;-32
2023/12/10 01:38:50;;;;;;;;;;;7.90;99.90;;;;;;5134081;27;19943;-32
2023/12/10 01:41:18;;;;;;;;;;;7.90;99.90;;;;;;5132444;27;19957;-32
2023/12/10 01:43:45;;;;;;;;;;;7.90;99.90;;;;;;5126866;27;19927;-31
2023/12/10 01:46:12;;;;;;;;;;;7.90;99.90;;;;;;5115662;27;20309;-31
2023/12/10 01:48:39;;;;;;;;;;;7.80;99.90;;;;;;5133163;27;19953;-31
2023/12/10 01:51:08;;;;;;;;;;;7.80;99.90;;;;;;5116031;27;20389;-31
2023/12/10 01:53:34;;;;;;;;;;;7.80;99.90;;;;;;5115542;27;20009;-31
2023/12/10 01:56:01;;;;;;;;;;;7.80;99.90;;;;;;5115059;27;19927;-31
2023/12/10 01:58:28;;;;;;;;;;;7.80;99.90;;;;;;5121200;27;20272;-32
2023/12/10 02:00:55;;;;;;;;;;;7.80;99.90;;;;;;5127038;27;19932;-31
2023/12/10 02:03:21;;;;;;;;;;;7.80;99.90;;;;;;5115624;27;19938;-30
2023/12/10 02:05:48;;;;;;;;;;;7.80;99.90;;;;;;5109854;28;20319;-33
2023/12/10 02:08:16;;;;;;;;;;;7.80;99.90;;;;;;5128644;27;19941;-32
2023/12/10 02:10:43;;;;;;;;;;;7.80;99.90;;;;;;5132321;27;19923;-31
2023/12/10 02:13:10;;;;;;;;;;;7.90;99.90;;;;;;5114111;27;19967;-32
2023/12/10 02:15:37;;;;;;;;;;;7.80;99.90;;;;;;5132864;27;19923;-32
2023/12/10 02:18:03;;;;;;;;;;;7.80;99.90;;;;;;5115909;27;19941;-32
2023/12/10 02:20:30;;;;;;;;;;;7.80;99.90;;;;;;5114578;27;19923;-31
2023/12/10 02:22:58;;;;;;;;;;;7.80;99.90;;;;;;5111695;27;19937;-30
2023/12/10 02:25:31;;;;;;;;;;;7.80;99.90;;;;;;5131704;27;19983;-32
2023/12/10 02:27:57;;;;;;;;;;;7.80;99.90;;;;;;5133315;27;19979;-31
2023/12/10 02:30:24;;;;;;;;;;;7.80;99.90;;;;;;5132198;27;20340;-32
2023/12/10 02:32:51;;;;;;;;;;;7.70;99.90;;;;;;5112498;27;19961;-31
2023/12/10 02:35:18;;;;;;;;;;;7.80;99.90;;;;;;5114287;27;19952;-30
2023/12/10 02:37:44;;;;;;;;;;;7.70;99.90;;;;;;5113067;27;19937;-31
2023/12/10 02:40:12;;;;;;;;;;;7.80;99.90;;;;;;5105598;28;19938;-32
2023/12/10 02:42:40;;;;;;;;;;;7.80;99.90;;;;;;5133012;27;20279;-31
2023/12/10 02:45:07;;;;;;;;;;;7.80;99.90;;;;;;5114304;27;19981;-32
2023/12/10 02:47:34;;;;;;;;;;;7.80;99.90;;;;;;5114281;27;19935;-31
2023/12/10 02:50:00;;;;;;;;;;;7.80;99.90;;;;;;5111466;28;20356;-31
2023/12/10 02:52:27;;;;;;;;;;;7.80;99.90;;;;;;5130731;28;19939;-32
2023/12/10 02:54:54;;;;;;;;;;;7.80;99.90;;;;;;5113461;28;19938;-31
2023/12/10 02:57:21;;;;;;;;;;;7.80;99.90;;;;;;5104698;28;19942;-32
2023/12/10 02:59:49;;;;;;;;;;;7.80;99.90;;;;;;5094247;28;19942;-32
2023/12/10 03:02:15;;;;;;;;;;;7.80;99.90;;;;;;5113538;28;20369;-32
2023/12/10 03:04:42;;;;;;;;;;;7.80;99.90;;;;;;5132317;28;19958;-32
2023/12/10 03:07:09;;;;;;;;;;;7.80;99.90;;;;;;5114192;28;19969;-30
2023/12/10 03:09:36;;;;;;;;;;;7.80;99.90;;;;;;5132693;28;20303;-32
2023/12/10 03:12:02;;;;;;;;;;;7.80;99.90;;;;;;5115550;27;20379;-32
2023/12/10 03:14:29;;;;;;;;;;;7.80;99.90;;;;;;5108148;28;19958;-31
2023/12/10 03:16:57;;;;;;;;;;;7.80;99.90;;;;;;5111353;27;19947;-31
2023/12/10 03:19:24;;;;;;;;;;;7.80;99.90;;;;;;5136774;27;19946;-30
2023/12/10 03:21:51;;;;;;;;;;;7.80;99.90;;;;;;5119152;27;19938;-31
2023/12/10 03:24:17;;;;;;;;;;;7.70;99.90;;;;;;5136702;27;19973;-32
2023/12/10 03:26:44;;;;;;;;;;;7.70;99.90;;;;;;5117625;27;19941;-32
2023/12/10 03:29:11;;;;;;;;;;;7.70;99.90;;;;;;5136977;27;19945;-31
2023/12/10 03:31:38;;;;;;;;;;;7.70;99.90;;;;;;5130110;27;20351;-32
2023/12/10 03:34:06;;;;;;;;;;;7.70;99.90;;;;;;5136753;27;20399;-30
2023/12/10 03:36:32;;;;;;;;;;;7.70;99.90;;;;;;5122801;27;19946;-31
2023/12/10 03:38:59;;;;;;;;;;;7.70;99.90;;;;;;5135727;27;19938;-31
2023/12/10 03:41:26;;;;;;;;;;;7.70;99.90;;;;;;5117504;27;19942;-30
2023/12/10 03:43:52;;;;;;;;;;;7.70;99.90;;;;;;5113969;27;19947;-31
2023/12/10 03:46:19;;;;;;;;;;;7.70;99.90;;;;;;5116884;27;19959;-31
2023/12/10 03:48:46;;;;;;;;;;;7.70;99.90;;;;;;5133024;27;20407;-31
2023/12/10 03:51:14;;;;;;;;;;;7.70;99.90;;;;;;5125143;27;19938;-32
2023/12/10 03:53:41;;;;;;;;;;;7.70;99.90;;;;;;5130301;27;20398;-31
2023/12/10 03:56:09;;;;;;;;;;;7.70;99.90;;;;;;5107739;27;19947;-31
2023/12/10 03:58:36;;;;;;;;;;;7.70;99.90;;;;;;5117899;27;19940;-32
2023/12/10 04:01:03;;;;;;;;;;;7.70;99.90;;;;;;5117261;27;20371;-32
2023/12/10 04:03:29;;;;;;;;;;;7.70;99.90;;;;;;5117586;27;20009;-31
2023/12/10 04:05:56;;;;;;;;;;;7.70;99.90;;;;;;5113589;27;19961;-32
2023/12/10 04:08:24;;;;;;;;;;;7.70;99.90;;;;;;5116811;27;19935;-31
2023/12/10 04:10:51;;;;;;;;;;;7.80;99.90;;;;;;5134771;27;20178;-31
2023/12/10 04:13:18;;;;;;;;;;;7.80;99.90;;;;;;5116212;27;19968;-32
2023/12/10 04:15:45;;;;;;;;;;;7.80;99.90;;;;;;5134305;27;20338;-32
2023/12/10 04:18:11;;;;;;;;;;;7.80;99.90;;;;;;5117047;27;20007;-32
2023/12/10 04:20:38;;;;;;;;;;;7.80;99.90;;;;;;5135548;27;20180;-31
2023/12/10 04:23:05;;;;;;;;;;;7.80;99.90;;;;;;5124379;27;19924;-32
2023/12/10 04:25:33;;;;;;;;;;;7.80;99.90;;;;;;5117729;27;19971;-32
2023/12/10 04:28:00;;;;;;;;;;;7.90;99.90;;;;;;5135105;27;19940;-31
2023/12/10 04:30:27;;;;;;;;;;;7.90;99.90;;;;;;5115226;27;19923;-32
2023/12/10 04:32:53;;;;;;;;;;;7.90;99.90;;;;;;5135023;27;20272;-32
2023/12/10 04:35:20;;;;;;;;;;;7.90;99.90;;;;;;5115980;27;19934;-32
2023/12/10 04:37:47;;;;;;;;;;;7.90;99.90;;;;;;5134378;27;19949;-31
2023/12/10 04:40:14;;;;;;;;;;;7.90;99.90;;;;;;5133431;27;20303;-31
2023/12/10 04:42:43;;;;;;;;;;;7.90;99.90;;;;;;5117073;27;19945;-32
2023/12/10 04:45:10;;;;;;;;;;;7.90;99.90;;;;;;5134610;27;20352;-32
2023/12/10 04:47:37;;;;;;;;;;;8.00;99.90;;;;;;5134609;27;19924;-31
2023/12/10 04:50:03;;;;;;;;;;;8.00;99.90;;;;;;5116382;27;19941;-31
2023/12/10 04:52:30;;;;;;;;;;;8.00;99.90;;;;;;5133745;27;19933;-32
2023/12/10 04:54:58;;;;;;;;;;;8.00;99.90;;;;;;5113214;27;19947;-31
2023/12/10 04:57:24;;;;;;;;;;;8.00;99.90;;;;;;5132467;27;19934;-31
2023/12/10 04:59:53;;;;;;;;;;;8.10;99.90;;;;;;5130132;27;19934;-32
2023/12/10 05:02:19;;;;;;;;;;;8.10;99.90;;;;;;5116220;27;19940;-31
2023/12/10 05:04:46;;;;;;;;;;;8.10;99.90;;;;;;5114017;27;20382;-31
2023/12/10 05:07:13;;;;;;;;;;;8.10;99.90;;;;;;5114492;27;19946;-32
2023/12/10 05:09:39;;;;;;;;;;;8.10;99.90;;;;;;5097416;28;19951;-32
2023/12/10 05:12:06;;;;;;;;;;;8.10;99.90;;;;;;5119496;27;20363;-32
2023/12/10 05:14:33;;;;;;;;;;;8.20;99.90;;;;;;5116232;27;20304;-32
2023/12/10 05:17:01;;;;;;;;;;;8.20;99.90;;;;;;5108199;27;19952;-31
2023/12/10 05:19:28;;;;;;;;;;;8.20;99.90;;;;;;5135514;27;19938;-32
2023/12/10 05:21:55;;;;;;;;;;;8.20;99.90;;;;;;5116739;27;19935;-32
2023/12/10 05:24:22;;;;;;;;;;;8.20;99.90;;;;;;5133780;27;19942;-31
2023/12/10 05:26:48;;;;;;;;;;;8.20;99.90;;;;;;5096060;28;20449;-31
2023/12/10 05:29:15;;;;;;;;;;;8.20;99.90;;;;;;5099559;27;19934;-32
2023/12/10 05:31:42;;;;;;;;;;;8.20;99.90;;;;;;5098357;27;19940;-33
2023/12/10 05:34:10;;;;;;;;;;;8.20;99.90;;;;;;5132724;27;19947;-31
2023/12/10 05:36:37;;;;;;;;;;;8.20;99.90;;;;;;5133667;27;19941;-31
2023/12/10 05:39:04;;;;;;;;;;;8.20;99.90;;;;;;5133128;27;20390;-32
2023/12/10 05:41:30;;;;;;;;;;;8.20;99.90;;;;;;5132488;27;19968;-30
2023/12/10 05:43:57;;;;;;;;;;;8.20;99.90;;;;;;5120538;27;20305;-32
2023/12/10 05:46:24;;;;;;;;;;;8.30;99.90;;;;;;5113614;27;19957;-31
2023/12/10 05:48:50;;;;;;;;;;;8.30;99.90;;;;;;5114462;27;19967;-32
2023/12/10 05:51:19;;;;;;;;;;;8.30;99.90;;;;;;5133813;27;20008;-33
2023/12/10 05:53:46;;;;;;;;;;;8.30;99.90;;;;;;5113904;27;19940;-32
2023/12/10 05:56:13;;;;;;;;;;;8.30;99.90;;;;;;5107219;27;19938;-31
2023/12/10 05:58:39;;;;;;;;;;;8.30;99.90;;;;;;5113748;27;20421;-32
2023/12/10 06:01:06;;;;;;;;;;;8.30;99.90;;;;;;5114541;27;19942;-32
2023/12/10 06:03:33;;;;;;;;;;;8.40;99.90;;;;;;5103640;27;19937;-31
2023/12/10 06:06:00;;;;;;;;;;;8.40;99.90;;;;;;5107292;27;19961;-31
2023/12/10 06:08:28;;;;;;;;;;;8.40;99.90;;;;;;5129209;27;19930;-31
2023/12/10 06:10:55;;;;;;;;;;;8.40;99.90;;;;;;5114248;27;19941;-31
2023/12/10 06:13:22;;;;;;;;;;;8.40;99.90;;;;;;5130849;27;19967;-31
2023/12/10 06:15:49;;;;;;;;;;;8.40;99.90;;;;;;5106639;27;19938;-31
2023/12/10 06:18:15;;;;;;;;;;;8.50;99.90;;;;;;5131534;27;20310;-32
2023/12/10 06:20:42;;;;;;;;;;;8.40;99.90;;;;;;5112480;27;20375;-32
2023/12/10 06:23:09;;;;;;;;;;;8.50;99.90;;;;;;5113795;27;19954;-31
2023/12/10 06:25:37;;;;;;;;;;;8.50;99.90;;;;;;5110382;27;19962;-32
2023/12/10 06:28:04;;;;;;;;;;;8.50;99.90;;;;;;5132203;27;19937;-32
2023/12/10 06:30:31;;;;;;;;;;;8.50;99.90;;;;;;5106430;28;19938;-31
2023/12/10 06:32:57;;;;;;;;;;;8.50;99.90;;;;;;5113629;27;20395;-31
2023/12/10 06:35:24;;;;;;;;;;;8.50;99.90;;;;;;5102478;28;19938;-32
2023/12/10 06:37:51;;;;;;;;;;;8.50;99.90;;;;;;5104318;28;19942;-31
2023/12/10 06:40:17;;;;;;;;;;;8.50;99.90;;;;;;5107550;28;19938;-32
2023/12/10 06:42:46;;;;;;;;;;;8.50;99.90;;;;;;5105752;28;19936;-31
2023/12/10 06:45:13;;;;;;;;;;;8.50;99.90;;;;;;5122723;27;20336;-31
2023/12/10 06:47:39;;;;;;;;;;;8.50;99.90;;;;;;5107888;27;19943;-31
2023/12/10 06:50:06;;;;;;;;;;;8.50;99.90;;;;;;5129721;27;19924;-31
2023/12/10 06:52:33;;;;;;;;;;;8.50;99.90;;;;;;5110946;28;19944;-32
2023/12/10 06:55:00;;;;;;;;;;;8.50;99.90;;;;;;5132015;28;19946;-32
2023/12/10 06:57:27;;;;;;;;;;;8.50;99.90;;;;;;5124873;28;19941;-32
2023/12/10 06:59:55;;;;;;;;;;;8.50;99.90;;;;;;5132581;28;19966;-31
2023/12/10 07:02:22;;;;;;;;;;;8.50;99.90;;;;;;5115693;28;19934;-32
2023/12/10 07:04:48;;;;;;;;;;;8.50;99.90;;;;;;5116765;28;19947;-31
2023/12/10 07:07:15;;;;;;;;;;;8.50;99.90;;;;;;5122830;28;19959;-32
2023/12/10 07:09:42;;;;;;;;;;;8.50;99.90;;;;;;5114405;28;20310;-31
2023/12/10 07:12:08;;;;;;;;;;;8.50;99.90;;;;;;5113223;28;19938;-30
2023/12/10 07:14:35;;;;;;;;;;;8.50;99.90;;;;;;5131891;28;19960;-32
2023/12/10 07:17:03;;;;;;;;;;;8.50;99.90;;;;;;5132371;28;19949;-32
2023/12/10 07:19:30;;;;;;;;;;;8.50;99.90;;;;;;5113706;28;20395;-32
2023/12/10 07:21:57;;;;;;;;;;;8.40;99.90;;;;;;5126944;28;19938;-32
2023/12/10 07:24:24;;;;;;;;;;;8.40;99.90;;;;;;5124038;28;19951;-32
2023/12/10 07:26:50;;;;;;;;;;;8.40;99.90;;;;;;5114439;28;19961;-32
2023/12/10 07:29:17;;;;;;;;;;;8.40;99.90;;;;;;5110354;28;19934;-32
2023/12/10 07:31:44;;;;;;;;;;;8.30;99.90;;;;;;5131084;28;19930;-32
2023/12/10 07:34:12;;;;;;;;;;;8.30;99.90;;;;;;5116342;28;20415;-31
2023/12/10 07:36:39;;;;;;;;;;;8.30;99.90;;;;;;5131843;28;20280;-31
2023/12/10 07:39:09;;;;;;;;;;;8.30;99.90;;;;;;5132560;28;20409;-32
2023/12/10 07:41:36;;;;;;;;;;;8.30;99.90;;;;;;5121410;28;19939;-32
2023/12/10 07:44:03;;;;;;;;;;;8.30;99.90;;;;;;5113127;28;19942;-31
2023/12/10 07:46:30;;;;;;;;;;;8.40;99.90;;;;;;5128879;28;19958;-31
2023/12/10 07:48:56;;;;;;;;;;;8.40;99.90;;;;;;5132666;28;19923;-31
2023/12/10 07:51:24;;;;;;;;;;;8.40;99.90;;;;;;5112363;28;19959;-30
2023/12/10 07:53:51;;;;;;;;;;;8.40;99.90;;;;;;5111983;28;19944;-31
2023/12/10 07:56:18;;;;;;;;;;;8.40;99.90;;;;;;5106360;28;19964;-31
2023/12/10 07:58:45;;;;;;;;;;;8.40;99.90;;;;;;5125307;27;19934;-30
2023/12/10 08:01:12;;;;;;;;;;;8.40;99.90;;;;;;5105821;27;19941;-31
2023/12/10 08:03:38;;;;;;;;;;;8.40;99.90;;;;;;5127457;27;20313;-31
2023/12/10 08:06:05;;;;;;;;;;;8.40;99.90;;;;;;5135691;27;19970;-30
2023/12/10 08:08:33;;;;;;;;;;;8.40;99.90;;;;;;5128954;27;19941;-31
2023/12/10 08:11:00;;;;;;;;;;;8.40;99.90;;;;;;5112306;28;19945;-31
2023/12/10 08:13:27;;;;;;;;;;;8.40;99.90;;;;;;5113769;27;19942;-31
2023/12/10 08:15:53;;;;;;;;;;;8.40;99.90;;;;;;5132684;27;19963;-31
2023/12/10 08:18:20;;;;;;;;;;;8.40;99.90;;;;;;5114380;27;19972;-30
2023/12/10 08:20:47;;;;;;;;;;;8.40;99.90;;;;;;5126802;27;20319;-31
2023/12/10 08:23:14;;;;;;;;;;;8.40;99.90;;;;;;5107380;27;20394;-31
2023/12/10 08:25:42;;;;;;;;;;;8.40;99.90;;;;;;5135397;27;20180;-31
2023/12/10 08:28:08;;;;;;;;;;;8.40;99.90;;;;;;5117014;27;19951;-32
2023/12/10 08:30:35;;;;;;;;;;;8.30;99.90;;;;;;5114380;27;19942;-32
2023/12/10 08:33:02;;;;;;;;;;;8.30;99.90;;;;;;5129393;27;20337;-31
2023/12/10 08:35:29;;;;;;;;;;;8.30;99.90;;;;;;5114661;27;19943;-32
2023/12/10 08:37:55;;;;;;;;;;;8.30;99.90;;;;;;5111908;27;19944;-31
2023/12/10 08:40:22;;;;;;;;;;;8.40;99.90;;;;;;5124635;27;20285;-32
2023/12/10 08:42:50;;;;;;;;;;;8.40;99.90;;;;;;5134313;27;19943;-32
2023/12/10 08:45:17;;;;;;;;;;;8.40;99.90;;;;;;5132442;27;19936;-32
2023/12/10 08:47:44;;;;;;;;;;;8.40;99.90;;;;;;5134698;27;20402;-31
2023/12/10 08:50:10;;;;;;;;;;;8.40;99.90;;;;;;5134675;27;19939;-31
2023/12/10 08:52:37;;;;;;;;;;;8.40;99.90;;;;;;5116009;27;19938;-32
2023/12/10 08:55:04;;;;;;;;;;;8.40;99.90;;;;;;5115631;27;19966;-31
2023/12/10 08:57:31;;;;;;;;;;;8.40;99.90;;;;;;5135417;27;19961;-32
2023/12/10 09:00:00;;;;;;;;;;;8.50;99.90;;;;;;5134872;27;19937;-32
2023/12/10 09:02:27;;;;;;;;;;;8.40;99.90;;;;;;5115256;27;20027;-31
2023/12/10 09:04:54;;;;;;;;;;;8.40;99.90;;;;;;5115479;27;19963;-31
2023/12/10 09:07:21;;;;;;;;;;;8.40;99.90;;;;;;5118125;27;19962;-32
2023/12/10 09:09:48;;;;;;;;;;;8.40;99.90;;;;;;5124221;27;20022;-32
2023/12/10 09:12:15;;;;;;;;;;;8.40;99.90;;;;;;5106874;27;19957;-31
2023/12/10 09:14:42;;;;;;;;;;;8.40;99.90;;;;;;5116287;27;19962;-31
2023/12/10 09:17:10;;;;;;;;;;;8.40;99.90;;;;;;5147220;27;19961;-31
2023/12/10 09:19:37;;;;;;;;;;;8.30;99.90;;;;;;5115453;27;19942;-31
2023/12/10 09:22:04;;;;;;;;;;;8.30;99.90;;;;;;5116524;27;19945;-31
2023/12/10 09:24:31;;;;;;;;;;;8.30;99.90;;;;;;5142231;27;19987;-30
2023/12/10 09:26:58;;;;;;;;;;;8.30;99.90;;;;;;5135358;27;19955;-32
2023/12/10 09:29:25;;;;;;;;;;;8.30;99.90;;;;;;5134839;27;20029;-31
2023/12/10 09:31:51;;;;;;;;;;;8.30;99.90;;;;;;5115133;27;20409;-31
2023/12/10 09:34:20;;;;;;;;;;;8.40;99.90;;;;;;5111430;27;19938;-31
2023/12/10 09:36:46;;;;;;;;;;;8.40;99.90;;;;;;5134133;27;20339;-31
2023/12/10 09:39:14;;;;;;;;;;;8.40;99.90;;;;;;5134124;27;19941;-31
2023/12/10 09:41:41;;;;;;;;;;;8.40;99.90;;;;;;5114943;27;20295;-31
2023/12/10 09:44:07;;;;;;;;;;;8.40;99.90;;;;;;5115475;27;19930;-32
2023/12/10 09:46:34;;;;;;;;;;;8.40;99.90;;;;;;5130289;27;20044;-32
2023/12/10 09:49:01;;;;;;;;;;;8.40;99.90;;;;;;5115237;27;20381;-32
2023/12/10 09:51:29;;;;;;;;;;;8.40;99.90;;;;;;5111020;27;20378;-30
2023/12/10 09:53:56;;;;;;;;;;;8.50;99.90;;;;;;5109427;27;20416;-31
2023/12/10 09:56:23;;;;;;;;;;;8.50;99.90;;;;;;5107671;27;19938;-31
2023/12/10 09:58:49;;;;;;;;;;;8.50;99.90;;;;;;5131149;27;19962;-32
2023/12/10 10:01:16;;;;;;;;;;;8.50;99.90;;;;;;5136394;27;19944;-32
2023/12/10 10:03:43;;;;;;;;;;;8.50;99.90;;;;;;5116501;27;19935;-31
2023/12/10 10:06:10;;;;;;;;;;;8.50;99.90;;;;;;5142561;27;19939;-31
2023/12/10 10:08:38;;;;;;;;;;;8.50;99.90;;;;;;5124227;27;19934;-32
2023/12/10 10:11:04;;;;;;;;;;;8.50;99.90;;;;;;5127804;27;20265;-31
2023/12/10 10:13:31;;;;;;;;;;;8.50;99.90;;;;;;5131097;27;19958;-32
2023/12/10 10:15:58;;;;;;;;;;;8.50;99.90;;;;;;5130624;27;20445;-31
2023/12/10 10:18:26;;;;;;;;;;;8.50;99.90;;;;;;5135098;27;19947;-30
2023/12/10 10:20:52;;;;;;;;;;;8.50;99.90;;;;;;5131208;27;19935;-31
2023/12/10 10:23:19;;;;;;;;;;;8.50;99.90;;;;;;5113871;27;19936;-31
2023/12/10 10:25:47;;;;;;;;;;;8.50;99.90;;;;;;5133045;27;19939;-30
2023/12/10 10:28:15;;;;;;;;;;;8.50;99.90;;;;;;5111712;27;19962;-31
2023/12/10 10:30:42;;;;;;;;;;;8.60;99.90;;;;;;5107070;28;19938;-32
2023/12/10 10:33:09;;;;;;;;;;;8.50;99.90;;;;;;5108645;27;19935;-29
2023/12/10 10:35:36;;;;;;;;;;;8.60;99.90;;;;;;5126773;27;19944;-31
2023/12/10 10:38:02;;;;;;;;;;;8.60;99.90;;;;;;5130668;27;19938;-31
2023/12/10 10:40:29;;;;;;;;;;;8.60;99.90;;;;;;5132009;27;19943;-31
2023/12/10 10:42:57;;;;;;;;;;;8.60;99.90;;;;;;5113984;27;20383;-32
2023/12/10 10:45:24;;;;;;;;;;;8.60;99.90;;;;;;5132270;27;20015;-32
2023/12/10 10:47:51;;;;;;;;;;;8.60;99.90;;;;;;5111455;27;19962;-31
2023/12/10 10:50:18;;;;;;;;;;;8.60;99.90;;;;;;5132333;27;20348;-32
2023/12/10 10:52:44;;;;;;;;;;;8.60;99.90;;;;;;5130647;27;20992;-32
2023/12/10 10:55:11;;;;;;;;;;;8.60;99.90;;;;;;5112810;27;19999;-32
2023/12/10 10:57:39;;;;;;;;;;;8.70;99.90;;;;;;5132918;27;20332;-30
2023/12/10 11:00:26;;;;;;;;;;;8.60;99.90;;;;;;5106100;28;19946;-31
2023/12/10 11:02:55;;;;;;;;;;;8.60;99.90;;;;;;5130257;28;19940;-30
2023/12/10 11:05:22;;;;;;;;;;;8.70;99.90;;;;;;5113945;28;19983;-31
2023/12/10 11:07:49;;;;;;;;;;;8.70;99.90;;;;;;5129814;28;19953;-33
2023/12/10 11:10:17;;;;;;;;;;;8.70;99.90;;;;;;5112153;27;19956;-31
2023/12/10 11:12:45;;;;;;;;;;;8.70;99.90;;;;;;5110443;28;19923;-31
2023/12/10 11:15:22;;;;;;;;;;;8.70;99.90;;;;;;5127357;28;19934;-30
2023/12/10 11:17:50;;;;;;;;;;;8.70;99.90;;;;;;5127232;28;19942;-31
2023/12/10 11:20:30;;;;;;;;;;;8.70;99.90;;;;;;5130160;27;19941;-31
2023/12/10 11:22:57;;;;;;;;;;;8.70;99.90;;;;;;5098434;28;20361;-30
2023/12/10 11:25:24;;;;;;;;;;;8.70;99.90;;;;;;5108535;28;19953;-31
2023/12/10 11:27:50;;;;;;;;;;;8.70;99.90;;;;;;5128753;28;20413;-31
2023/12/10 11:30:17;;;;;;;;;;;8.70;99.90;;;;;;5130904;27;19934;-31
2023/12/10 11:32:44;;;;;;;;;;;8.60;99.90;;;;;;5114626;27;20318;-32
2023/12/10 11:35:11;;;;;;;;;;;8.70;99.90;;;;;;5128864;27;19934;-32
2023/12/10 11:37:39;;;;;;;;;;;8.70;99.90;;;;;;5116182;27;19936;-32
2023/12/10 11:40:08;;;;;;;;;;;8.60;99.90;;;;;;5127905;27;20342;-32
2023/12/10 11:42:35;;;;;;;;;;;8.70;99.90;;;;;;5133355;27;19935;-32
2023/12/10 11:45:02;;;;;;;;;;;8.70;99.90;;;;;;5116676;27;19940;-31
2023/12/10 11:47:28;;;;;;;;;;;8.70;99.90;;;;;;5104208;27;20421;-30
2023/12/10 11:49:55;;;;;;;;;;;8.70;99.90;;;;;;5132324;27;19940;-31
2023/12/10 11:52:22;;;;;;;;;;;8.70;99.90;;;;;;5115186;27;19939;-32
2023/12/10 11:54:50;;;;;;;;;;;8.70;99.90;;;;;;5131917;27;19945;-31
2023/12/10 11:57:17;;;;;;;;;;;8.70;99.90;;;;;;5129966;27;19951;-31
2023/12/10 11:59:45;;;;;;;;;;;8.70;99.90;;;;;;5112900;27;19939;-31
2023/12/10 12:02:12;;;;;;;;;;;8.70;99.90;;;;;;5129528;27;19941;-31
2023/12/10 12:04:39;;;;;;;;;;;8.70;99.90;;;;;;5117153;27;19947;-32
2023/12/10 12:07:06;;;;;;;;;;;8.70;99.90;;;;;;5109589;27;19965;-31
2023/12/10 12:09:32;;;;;;;;;;;8.70;99.90;;;;;;5114372;27;19940;-32
2023/12/10 12:12:01;;;;;;;;;;;8.70;99.90;;;;;;5123756;27;19942;-31
2023/12/10 12:14:29;;;;;;;;;;;8.70;99.90;;;;;;5118602;27;21455;-31
2023/12/10 12:16:56;;;;;;;;;;;8.70;99.90;;;;;;5122595;27;19951;-31
2023/12/10 12:19:26;;;;;;;;;;;8.70;99.90;;;;;;5136861;27;20265;-31
2023/12/10 12:21:53;;;;;;;;;;;8.70;99.90;;;;;;5116899;27;19935;-31
2023/12/10 12:24:20;;;;;;;;;;;8.80;99.90;;;;;;5135807;27;20310;-31
2023/12/10 12:26:49;;;;;;;;;;;8.80;99.90;;;;;;5135408;27;19950;-31
2023/12/10 12:29:17;;;;;;;;;;;8.80;99.90;;;;;;5116443;27;19951;-31
2023/12/10 12:31:44;;;;;;;;;;;8.80;99.90;;;;;;5116685;27;19934;-31
2023/12/10 12:34:11;;;;;;;;;;;8.90;99.90;;;;;;5123023;27;20359;-30
2023/12/10 12:36:38;;;;;;;;;;;8.90;99.90;;;;;;5116271;27;19957;-30
2023/12/10 12:39:05;;;;;;;;;;;8.90;99.90;;;;;;5115750;27;19991;-31
2023/12/10 12:41:32;;;;;;;;;;;8.90;99.90;;;;;;5133544;27;19934;-31
2023/12/10 12:43:59;;;;;;;;;;;8.90;99.90;;;;;;5135924;27;19946;-31
2023/12/10 12:46:27;;;;;;;;;;;9.00;99.90;;;;;;5116623;27;19945;-31
2023/12/10 12:48:53;;;;;;;;;;;9.00;99.90;;;;;;5135410;27;19968;-31
2023/12/10 12:51:20;;;;;;;;;;;9.00;99.90;;;;;;5113252;27;19945;-31
2023/12/10 12:53:47;;;;;;;;;;;8.90;99.90;;;;;;5123803;27;19950;-31
2023/12/10 12:56:14;;;;;;;;;;;8.90;99.90;;;;;;5112316;27;20695;-32
2023/12/10 12:58:40;;;;;;;;;;;8.90;99.90;;;;;;5131382;27;19943;-31
2023/12/10 13:01:07;;;;;;;;;;;8.80;99.90;;;;;;5112922;27;20436;-31
2023/12/10 13:03:35;;;;;;;;;;;8.80;99.90;;;;;;5135889;27;20291;-31
2023/12/10 13:06:02;;;;;;;;;;;8.90;99.90;;;;;;5135732;27;19939;-31
2023/12/10 13:08:30;;;;;;;;;;;8.80;99.90;;;;;;5132950;27;20374;-31
2023/12/10 13:11:02;;;;;;;;;;;8.80;99.90;;;;;;5135066;27;20373;-31
2023/12/10 13:13:29;;;;;;;;;;;8.80;99.90;;;;;;5116230;27;19965;-32
2023/12/10 13:15:57;;;;;;;;;;;8.80;99.90;;;;;;5115091;27;20315;-31
2023/12/10 13:18:23;;;;;;;;;;;8.70;99.90;;;;;;5114732;27;20012;-31
2023/12/10 13:20:51;;;;;;;;;;;8.70;99.90;;;;;;5128616;27;19945;-31
2023/12/10 13:23:18;;;;;;;;;;;8.70;99.90;;;;;;5132828;27;19943;-32
2023/12/10 13:25:45;;;;;;;;;;;8.70;99.90;;;;;;5113218;27;20379;-31
2023/12/10 13:28:12;;;;;;;;;;;8.70;99.90;;;;;;5115426;27;20034;-31
2023/12/10 13:30:39;;;;;;;;;;;8.70;99.90;;;;;;5131544;27;19947;-31
2023/12/10 13:33:05;;;;;;;;;;;8.60;99.90;;;;;;5134975;27;19942;-31
2023/12/10 13:35:32;;;;;;;;;;;8.60;99.90;;;;;;5115666;27;20404;-31
2023/12/10 13:38:00;;;;;;;;;;;8.60;99.90;;;;;;5116338;27;19950;-31
2023/12/10 13:40:27;;;;;;;;;;;8.60;99.90;;;;;;5134692;27;20271;-31
2023/12/10 13:42:54;;;;;;;;;;;8.60;99.90;;;;;;5134356;27;19951;-31
2023/12/10 13:45:20;;;;;;;;;;;8.60;99.90;;;;;;5116841;27;19946;-32
2023/12/10 13:47:47;;;;;;;;;;;8.60;99.90;;;;;;5115211;27;19930;-32
2023/12/10 13:50:14;;;;;;;;;;;8.60;99.90;;;;;;5134697;27;20314;-32
2023/12/10 13:52:40;;;;;;;;;;;8.50;99.90;;;;;;5116427;27;19944;-31
2023/12/10 13:55:09;;;;;;;;;;;8.60;99.90;;;;;;5114611;27;19970;-32
2023/12/10 13:57:36;;;;;;;;;;;8.50;99.90;;;;;;5132670;27;19950;-32
2023/12/10 14:00:08;;;;;;;;;;;8.50;99.90;;;;;;5133823;27;20293;-30
2023/12/10 14:02:34;;;;;;;;;;;8.50;99.90;;;;;;5115364;27;19945;-30
2023/12/10 14:05:02;;;;;;;;;;;8.50;99.90;;;;;;5131282;27;19936;-31
2023/12/10 14:07:29;;;;;;;;;;;8.50;99.90;;;;;;5131392;27;19944;-31
2023/12/10 14:09:56;;;;;;;;;;;8.50;99.90;;;;;;5132788;27;19950;-31
2023/12/10 14:12:24;;;;;;;;;;;8.50;99.90;;;;;;5123777;27;19959;-31
2023/12/10 14:14:51;;;;;;;;;;;8.50;99.90;;;;;;5103345;27;19940;-31
2023/12/10 14:17:18;;;;;;;;;;;8.50;99.90;;;;;;5115333;27;19944;-32
2023/12/10 14:19:44;;;;;;;;;;;8.40;99.90;;;;;;5114137;27;19934;-32
2023/12/10 14:22:11;;;;;;;;;;;8.40;99.90;;;;;;5114778;27;20415;-32
2023/12/10 14:24:38;;;;;;;;;;;8.40;99.90;;;;;;5114604;27;19940;-32
2023/12/10 14:27:05;;;;;;;;;;;8.40;99.90;;;;;;5113290;28;19940;-32
2023/12/10 14:29:33;;;;;;;;;;;8.40;99.90;;;;;;5107517;27;19951;-33